sensor_id;sensor_type;location;lat;lon;timestamp;P1;durP1;ratioP1;P2;durP2;ratioP2
2548;SDS011;1284;53.520;10.248;2023-07-20T00:00:51;0.43;;;0.30;;
2548;SDS011;1284;53.520;10.248;2023-07-20T00:03:18;0.45;;;0.30;;
2548;SDS011;1284;53.520;10.248;2023-07-20T00:05:48;1.00;;;0.47;;
2548;SDS011;1284;53.520;10.248;2023-07-20T00:08:14;1.33;;;0.60;;
2548;SDS011;1284;53.520;10.248;2023-07-20T00:11:00;0.47;;;0.28;;
2548;SDS011;1284;53.520;10.248;2023-07-20T00:13:26;0.55;;;0.30;;
2548;SDS011;1284;53.520;10.248;2023-07-20T00:15:52;0.43;;;0.32;;
2548;SDS011;1284;53.520;10.248;2023-07-20T00:18:18;0.20;;;0.20;;
2548;SDS011;1284;53.520;10.248;2023-07-20T00:20:46;0.50;;;0.50;;
2548;SDS011;1284;53.520;10.248;2023-07-20T00:23:12;0.50;;;0.47;;
2548;SDS011;1284;53.520;10.248;2023-07-20T00:25:37;0.30;;;0.30;;
2548;SDS011;1284;53.520;10.248;2023-07-20T00:28:03;0.77;;;0.52;;
2548;SDS011;1284;53.520;10.248;2023-07-20T00:30:28;0.70;;;0.50;;
2548;SDS011;1284;53.520;10.248;2023-07-20T00:32:54;0.75;;;0.50;;
2548;SDS011;1284;53.520;10.248;2023-07-20T00:35:21;0.50;;;0.40;;
2548;SDS011;1284;53.520;10.248;2023-07-20T00:37:47;0.80;;;0.43;;
2548;SDS011;1284;53.520;10.248;2023-07-20T00:40:12;2.63;;;0.43;;
2548;SDS011;1284;53.520;10.248;2023-07-20T00:42:38;0.65;;;0.40;;
2548;SDS011;1284;53.520;10.248;2023-07-20T00:45:03;1.38;;;0.50;;
2548;SDS011;1284;53.520;10.248;2023-07-20T00:47:29;0.25;;;0.25;;
2548;SDS011;1284;53.520;10.248;2023-07-20T00:49:55;0.50;;;0.40;;
2548;SDS011;1284;53.520;10.248;2023-07-20T00:52:21;1.25;;;0.28;;
2548;SDS011;1284;53.520;10.248;2023-07-20T00:54:50;0.47;;;0.45;;
2548;SDS011;1284;53.520;10.248;2023-07-20T00:57:17;0.65;;;0.55;;
2548;SDS011;1284;53.520;10.248;2023-07-20T00:59:44;0.93;;;0.52;;
2548;SDS011;1284;53.520;10.248;2023-07-20T01:02:09;0.63;;;0.50;;
2548;SDS011;1284;53.520;10.248;2023-07-20T01:04:35;1.00;;;0.40;;
2548;SDS011;1284;53.520;10.248;2023-07-20T01:07:16;0.50;;;0.50;;
2548;SDS011;1284;53.520;10.248;2023-07-20T01:09:52;0.52;;;0.50;;
2548;SDS011;1284;53.520;10.248;2023-07-20T01:12:32;0.63;;;0.45;;
2548;SDS011;1284;53.520;10.248;2023-07-20T01:15:06;0.60;;;0.43;;
2548;SDS011;1284;53.520;10.248;2023-07-20T01:17:33;1.33;;;0.60;;
2548;SDS011;1284;53.520;10.248;2023-07-20T01:19:59;0.65;;;0.45;;
2548;SDS011;1284;53.520;10.248;2023-07-20T01:28:14;0.50;;;0.50;;
2548;SDS011;1284;53.520;10.248;2023-07-20T01:33:57;0.70;;;0.55;;
2548;SDS011;1284;53.520;10.248;2023-07-20T01:36:24;0.52;;;0.52;;
2548;SDS011;1284;53.520;10.248;2023-07-20T01:38:52;1.23;;;0.45;;
2548;SDS011;1284;53.520;10.248;2023-07-20T01:41:18;4.55;;;0.63;;
2548;SDS011;1284;53.520;10.248;2023-07-20T01:43:44;0.85;;;0.57;;
2548;SDS011;1284;53.520;10.248;2023-07-20T01:46:10;2.28;;;0.60;;
2548;SDS011;1284;53.520;10.248;2023-07-20T01:48:36;0.50;;;0.50;;
2548;SDS011;1284;53.520;10.248;2023-07-20T01:51:01;0.45;;;0.45;;
2548;SDS011;1284;53.520;10.248;2023-07-20T01:53:27;1.20;;;0.55;;
2548;SDS011;1284;53.520;10.248;2023-07-20T01:55:53;1.05;;;0.57;;
2548;SDS011;1284;53.520;10.248;2023-07-20T01:58:19;0.80;;;0.55;;
2548;SDS011;1284;53.520;10.248;2023-07-20T02:00:45;0.52;;;0.50;;
2548;SDS011;1284;53.520;10.248;2023-07-20T02:03:10;0.63;;;0.63;;
2548;SDS011;1284;53.520;10.248;2023-07-20T02:05:37;1.20;;;0.75;;
2548;SDS011;1284;53.520;10.248;2023-07-20T02:08:03;2.28;;;0.88;;
2548;SDS011;1284;53.520;10.248;2023-07-20T02:10:28;3.30;;;1.08;;
2548;SDS011;1284;53.520;10.248;2023-07-20T02:12:54;1.27;;;0.80;;
2548;SDS011;1284;53.520;10.248;2023-07-20T02:15:19;0.80;;;0.75;;
2548;SDS011;1284;53.520;10.248;2023-07-20T02:17:46;1.25;;;1.02;;
2548;SDS011;1284;53.520;10.248;2023-07-20T02:20:11;1.73;;;0.70;;
2548;SDS011;1284;53.520;10.248;2023-07-20T02:22:37;1.65;;;1.05;;
2548;SDS011;1284;53.520;10.248;2023-07-20T02:25:06;1.75;;;0.90;;
2548;SDS011;1284;53.520;10.248;2023-07-20T02:27:35;0.80;;;0.77;;
2548;SDS011;1284;53.520;10.248;2023-07-20T02:30:01;0.95;;;0.82;;
2548;SDS011;1284;53.520;10.248;2023-07-20T02:32:30;2.10;;;1.27;;
2548;SDS011;1284;53.520;10.248;2023-07-20T02:34:57;1.55;;;0.85;;
2548;SDS011;1284;53.520;10.248;2023-07-20T02:37:22;1.98;;;0.98;;
2548;SDS011;1284;53.520;10.248;2023-07-20T02:39:48;1.50;;;0.95;;
2548;SDS011;1284;53.520;10.248;2023-07-20T02:42:13;1.73;;;1.10;;
2548;SDS011;1284;53.520;10.248;2023-07-20T02:44:40;3.03;;;1.52;;
2548;SDS011;1284;53.520;10.248;2023-07-20T02:47:06;1.48;;;0.95;;
2548;SDS011;1284;53.520;10.248;2023-07-20T02:49:31;1.92;;;1.17;;
2548;SDS011;1284;53.520;10.248;2023-07-20T02:51:57;1.42;;;0.95;;
2548;SDS011;1284;53.520;10.248;2023-07-20T02:54:22;1.15;;;0.85;;
2548;SDS011;1284;53.520;10.248;2023-07-20T02:56:48;1.15;;;0.80;;
2548;SDS011;1284;53.520;10.248;2023-07-20T02:59:13;2.72;;;1.05;;
2548;SDS011;1284;53.520;10.248;2023-07-20T03:01:39;2.35;;;0.93;;
2548;SDS011;1284;53.520;10.248;2023-07-20T03:04:06;1.67;;;1.17;;
2548;SDS011;1284;53.520;10.248;2023-07-20T03:06:33;1.45;;;1.17;;
2548;SDS011;1284;53.520;10.248;2023-07-20T03:09:01;0.93;;;0.70;;
2548;SDS011;1284;53.520;10.248;2023-07-20T03:11:26;1.23;;;1.10;;
2548;SDS011;1284;53.520;10.248;2023-07-20T03:13:52;2.05;;;1.33;;
2548;SDS011;1284;53.520;10.248;2023-07-20T03:16:18;1.25;;;0.98;;
2548;SDS011;1284;53.520;10.248;2023-07-20T03:18:45;1.42;;;1.05;;
2548;SDS011;1284;53.520;10.248;2023-07-20T03:21:13;1.92;;;1.25;;
2548;SDS011;1284;53.520;10.248;2023-07-20T03:23:39;1.90;;;1.20;;
2548;SDS011;1284;53.520;10.248;2023-07-20T03:26:05;1.52;;;1.05;;
2548;SDS011;1284;53.520;10.248;2023-07-20T03:28:34;1.50;;;0.90;;
2548;SDS011;1284;53.520;10.248;2023-07-20T03:31:00;7.28;;;1.35;;
2548;SDS011;1284;53.520;10.248;2023-07-20T03:33:30;1.75;;;1.13;;
2548;SDS011;1284;53.520;10.248;2023-07-20T03:35:57;3.42;;;1.00;;
2548;SDS011;1284;53.520;10.248;2023-07-20T03:38:23;0.95;;;0.93;;
2548;SDS011;1284;53.520;10.248;2023-07-20T03:40:57;1.77;;;1.05;;
2548;SDS011;1284;53.520;10.248;2023-07-20T03:43:24;2.53;;;1.00;;
2548;SDS011;1284;53.520;10.248;2023-07-20T03:45:51;6.15;;;1.00;;
2548;SDS011;1284;53.520;10.248;2023-07-20T03:48:20;1.38;;;0.90;;
2548;SDS011;1284;53.520;10.248;2023-07-20T03:50:47;2.87;;;1.00;;
2548;SDS011;1284;53.520;10.248;2023-07-20T03:53:14;1.70;;;1.30;;
2548;SDS011;1284;53.520;10.248;2023-07-20T03:55:40;1.15;;;1.00;;
2548;SDS011;1284;53.520;10.248;2023-07-20T03:58:07;2.00;;;1.30;;
2548;SDS011;1284;53.520;10.248;2023-07-20T04:00:33;2.42;;;1.17;;
2548;SDS011;1284;53.520;10.248;2023-07-20T04:03:00;0.85;;;0.85;;
2548;SDS011;1284;53.520;10.248;2023-07-20T04:05:26;1.73;;;0.73;;
2548;SDS011;1284;53.520;10.248;2023-07-20T04:08:11;2.30;;;1.17;;
2548;SDS011;1284;53.520;10.248;2023-07-20T04:10:37;2.50;;;1.00;;
2548;SDS011;1284;53.520;10.248;2023-07-20T04:13:03;1.48;;;0.80;;
2548;SDS011;1284;53.520;10.248;2023-07-20T04:15:29;2.78;;;1.23;;
2548;SDS011;1284;53.520;10.248;2023-07-20T04:17:55;2.10;;;1.05;;
2548;SDS011;1284;53.520;10.248;2023-07-20T04:20:22;1.50;;;0.85;;
2548;SDS011;1284;53.520;10.248;2023-07-20T04:22:50;1.80;;;1.00;;
2548;SDS011;1284;53.520;10.248;2023-07-20T04:25:17;0.75;;;0.68;;
2548;SDS011;1284;53.520;10.248;2023-07-20T04:27:43;1.45;;;0.88;;
2548;SDS011;1284;53.520;10.248;2023-07-20T04:30:09;0.98;;;0.73;;
2548;SDS011;1284;53.520;10.248;2023-07-20T04:32:37;1.80;;;0.90;;
2548;SDS011;1284;53.520;10.248;2023-07-20T04:35:06;1.27;;;0.80;;
2548;SDS011;1284;53.520;10.248;2023-07-20T04:37:38;1.38;;;1.05;;
2548;SDS011;1284;53.520;10.248;2023-07-20T04:40:15;1.45;;;0.93;;
2548;SDS011;1284;53.520;10.248;2023-07-20T04:42:41;0.75;;;0.63;;
2548;SDS011;1284;53.520;10.248;2023-07-20T04:45:06;1.20;;;0.90;;
2548;SDS011;1284;53.520;10.248;2023-07-20T04:47:32;0.90;;;0.77;;
2548;SDS011;1284;53.520;10.248;2023-07-20T04:49:58;1.33;;;0.70;;
2548;SDS011;1284;53.520;10.248;2023-07-20T04:52:23;0.90;;;0.80;;
2548;SDS011;1284;53.520;10.248;2023-07-20T04:54:50;1.13;;;0.55;;
2548;SDS011;1284;53.520;10.248;2023-07-20T04:57:15;0.57;;;0.50;;
2548;SDS011;1284;53.520;10.248;2023-07-20T05:02:12;0.82;;;0.50;;
2548;SDS011;1284;53.520;10.248;2023-07-20T05:04:37;1.65;;;0.90;;
2548;SDS011;1284;53.520;10.248;2023-07-20T05:07:03;3.10;;;1.10;;
2548;SDS011;1284;53.520;10.248;2023-07-20T05:09:28;1.40;;;1.08;;
2548;SDS011;1284;53.520;10.248;2023-07-20T05:11:54;1.90;;;1.15;;
2548;SDS011;1284;53.520;10.248;2023-07-20T05:14:19;1.67;;;1.13;;
2548;SDS011;1284;53.520;10.248;2023-07-20T05:16:47;1.73;;;1.00;;
2548;SDS011;1284;53.520;10.248;2023-07-20T05:19:12;2.30;;;1.20;;
2548;SDS011;1284;53.520;10.248;2023-07-20T05:21:38;1.33;;;0.88;;
2548;SDS011;1284;53.520;10.248;2023-07-20T05:24:04;2.80;;;1.80;;
2548;SDS011;1284;53.520;10.248;2023-07-20T05:26:30;2.55;;;1.52;;
2548;SDS011;1284;53.520;10.248;2023-07-20T05:28:55;1.90;;;1.35;;
2548;SDS011;1284;53.520;10.248;2023-07-20T05:31:20;2.20;;;1.27;;
2548;SDS011;1284;53.520;10.248;2023-07-20T05:33:46;3.92;;;1.90;;
2548;SDS011;1284;53.520;10.248;2023-07-20T05:36:11;4.07;;;2.03;;
2548;SDS011;1284;53.520;10.248;2023-07-20T05:38:37;2.67;;;1.67;;
2548;SDS011;1284;53.520;10.248;2023-07-20T05:41:02;2.20;;;1.67;;
2548;SDS011;1284;53.520;10.248;2023-07-20T05:43:29;3.28;;;2.00;;
2548;SDS011;1284;53.520;10.248;2023-07-20T05:45:57;2.67;;;1.55;;
2548;SDS011;1284;53.520;10.248;2023-07-20T05:48:26;3.28;;;2.10;;
2548;SDS011;1284;53.520;10.248;2023-07-20T05:50:51;1.45;;;1.27;;
2548;SDS011;1284;53.520;10.248;2023-07-20T05:53:17;4.07;;;1.00;;
2548;SDS011;1284;53.520;10.248;2023-07-20T05:55:42;1.00;;;0.80;;
2548;SDS011;1284;53.520;10.248;2023-07-20T05:58:08;1.33;;;1.00;;
2548;SDS011;1284;53.520;10.248;2023-07-20T06:00:33;1.27;;;0.93;;
2548;SDS011;1284;53.520;10.248;2023-07-20T06:02:58;1.13;;;0.75;;
2548;SDS011;1284;53.520;10.248;2023-07-20T06:05:24;0.88;;;0.77;;
2548;SDS011;1284;53.520;10.248;2023-07-20T06:07:50;2.78;;;1.10;;
2548;SDS011;1284;53.520;10.248;2023-07-20T06:10:15;1.75;;;0.90;;
2548;SDS011;1284;53.520;10.248;2023-07-20T06:12:41;3.47;;;0.90;;
2548;SDS011;1284;53.520;10.248;2023-07-20T06:15:10;1.58;;;0.55;;
2548;SDS011;1284;53.520;10.248;2023-07-20T06:17:50;1.17;;;0.70;;
2548;SDS011;1284;53.520;10.248;2023-07-20T06:20:16;0.90;;;0.70;;
2548;SDS011;1284;53.520;10.248;2023-07-20T06:22:41;3.17;;;0.70;;
2548;SDS011;1284;53.520;10.248;2023-07-20T06:25:07;0.60;;;0.50;;
2548;SDS011;1284;53.520;10.248;2023-07-20T06:27:32;3.17;;;0.75;;
2548;SDS011;1284;53.520;10.248;2023-07-20T06:29:58;0.85;;;0.70;;
2548;SDS011;1284;53.520;10.248;2023-07-20T06:32:23;1.00;;;0.70;;
2548;SDS011;1284;53.520;10.248;2023-07-20T06:34:49;0.70;;;0.57;;
2548;SDS011;1284;53.520;10.248;2023-07-20T06:37:14;0.77;;;0.63;;
2548;SDS011;1284;53.520;10.248;2023-07-20T06:39:40;0.60;;;0.60;;
2548;SDS011;1284;53.520;10.248;2023-07-20T06:42:05;1.20;;;0.85;;
2548;SDS011;1284;53.520;10.248;2023-07-20T06:44:31;1.05;;;0.65;;
2548;SDS011;1284;53.520;10.248;2023-07-20T06:46:56;0.82;;;0.52;;
2548;SDS011;1284;53.520;10.248;2023-07-20T06:49:25;0.47;;;0.47;;
2548;SDS011;1284;53.520;10.248;2023-07-20T06:51:51;3.22;;;0.50;;
2548;SDS011;1284;53.520;10.248;2023-07-20T06:54:17;0.40;;;0.40;;
2548;SDS011;1284;53.520;10.248;2023-07-20T06:56:43;1.23;;;0.45;;
2548;SDS011;1284;53.520;10.248;2023-07-20T06:59:08;0.45;;;0.45;;
2548;SDS011;1284;53.520;10.248;2023-07-20T07:01:33;0.50;;;0.50;;
2548;SDS011;1284;53.520;10.248;2023-07-20T07:03:59;1.88;;;0.47;;
2548;SDS011;1284;53.520;10.248;2023-07-20T07:06:24;0.40;;;0.40;;
2548;SDS011;1284;53.520;10.248;2023-07-20T07:08:50;0.50;;;0.50;;
2548;SDS011;1284;53.520;10.248;2023-07-20T07:11:15;0.50;;;0.40;;
2548;SDS011;1284;53.520;10.248;2023-07-20T07:13:41;0.20;;;0.20;;
2548;SDS011;1284;53.520;10.248;2023-07-20T07:16:06;0.77;;;0.50;;
2548;SDS011;1284;53.520;10.248;2023-07-20T07:18:31;1.75;;;0.30;;
2548;SDS011;1284;53.520;10.248;2023-07-20T07:20:57;0.40;;;0.30;;
2548;SDS011;1284;53.520;10.248;2023-07-20T07:23:22;0.20;;;0.20;;
2548;SDS011;1284;53.520;10.248;2023-07-20T07:25:48;0.38;;;0.38;;
2548;SDS011;1284;53.520;10.248;2023-07-20T07:28:13;1.33;;;0.35;;
2548;SDS011;1284;53.520;10.248;2023-07-20T07:30:39;0.22;;;0.20;;
2548;SDS011;1284;53.520;10.248;2023-07-20T07:33:05;0.40;;;0.28;;
2548;SDS011;1284;53.520;10.248;2023-07-20T07:35:30;0.68;;;0.35;;
2548;SDS011;1284;53.520;10.248;2023-07-20T07:37:56;0.30;;;0.25;;
2548;SDS011;1284;53.520;10.248;2023-07-20T07:40:21;0.30;;;0.30;;
2548;SDS011;1284;53.520;10.248;2023-07-20T07:42:46;0.55;;;0.28;;
2548;SDS011;1284;53.520;10.248;2023-07-20T07:45:12;0.95;;;0.77;;
2548;SDS011;1284;53.520;10.248;2023-07-20T07:47:38;0.43;;;0.40;;
2548;SDS011;1284;53.520;10.248;2023-07-20T07:50:04;3.80;;;0.40;;
2548;SDS011;1284;53.520;10.248;2023-07-20T07:52:30;0.45;;;0.38;;
2548;SDS011;1284;53.520;10.248;2023-07-20T07:54:55;0.13;;;0.13;;
2548;SDS011;1284;53.520;10.248;2023-07-20T07:57:21;0.50;;;0.38;;
2548;SDS011;1284;53.520;10.248;2023-07-20T07:59:52;0.40;;;0.30;;
2548;SDS011;1284;53.520;10.248;2023-07-20T08:02:18;0.77;;;0.32;;
2548;SDS011;1284;53.520;10.248;2023-07-20T08:04:43;0.50;;;0.30;;
2548;SDS011;1284;53.520;10.248;2023-07-20T08:07:09;0.28;;;0.25;;
2548;SDS011;1284;53.520;10.248;2023-07-20T08:09:34;0.20;;;0.20;;
2548;SDS011;1284;53.520;10.248;2023-07-20T08:11:59;2.20;;;0.30;;
2548;SDS011;1284;53.520;10.248;2023-07-20T08:14:25;1.05;;;0.50;;
2548;SDS011;1284;53.520;10.248;2023-07-20T08:16:50;1.48;;;0.25;;
2548;SDS011;1284;53.520;10.248;2023-07-20T08:19:16;0.40;;;0.20;;
2548;SDS011;1284;53.520;10.248;2023-07-20T08:21:42;0.22;;;0.22;;
2548;SDS011;1284;53.520;10.248;2023-07-20T08:24:07;1.13;;;0.40;;
2548;SDS011;1284;53.520;10.248;2023-07-20T08:26:33;0.85;;;0.43;;
2548;SDS011;1284;53.520;10.248;2023-07-20T08:28:58;0.80;;;0.60;;
2548;SDS011;1284;53.520;10.248;2023-07-20T08:31:23;0.60;;;0.30;;
2548;SDS011;1284;53.520;10.248;2023-07-20T08:33:49;0.70;;;0.20;;
2548;SDS011;1284;53.520;10.248;2023-07-20T08:36:14;0.45;;;0.30;;
2548;SDS011;1284;53.520;10.248;2023-07-20T08:38:40;0.38;;;0.28;;
2548;SDS011;1284;53.520;10.248;2023-07-20T08:41:05;1.75;;;0.40;;
2548;SDS011;1284;53.520;10.248;2023-07-20T08:43:34;0.98;;;0.50;;
2548;SDS011;1284;53.520;10.248;2023-07-20T08:46:02;1.00;;;0.30;;
2548;SDS011;1284;53.520;10.248;2023-07-20T08:48:29;0.47;;;0.20;;
2548;SDS011;1284;53.520;10.248;2023-07-20T08:50:56;0.40;;;0.40;;
2548;SDS011;1284;53.520;10.248;2023-07-20T08:53:23;0.57;;;0.40;;
2548;SDS011;1284;53.520;10.248;2023-07-20T08:55:50;0.55;;;0.40;;
2548;SDS011;1284;53.520;10.248;2023-07-20T08:58:17;2.42;;;0.25;;
2548;SDS011;1284;53.520;10.248;2023-07-20T09:00:43;1.88;;;0.20;;
2548;SDS011;1284;53.520;10.248;2023-07-20T09:03:10;1.40;;;0.30;;
2548;SDS011;1284;53.520;10.248;2023-07-20T09:05:36;3.08;;;0.90;;
2548;SDS011;1284;53.520;10.248;2023-07-20T09:08:01;0.47;;;0.40;;
2548;SDS011;1284;53.520;10.248;2023-07-20T09:10:30;0.50;;;0.50;;
2548;SDS011;1284;53.520;10.248;2023-07-20T09:12:56;1.58;;;0.38;;
2548;SDS011;1284;53.520;10.248;2023-07-20T09:15:22;0.40;;;0.35;;
2548;SDS011;1284;53.520;10.248;2023-07-20T09:17:48;1.80;;;0.43;;
2548;SDS011;1284;53.520;10.248;2023-07-20T09:20:16;0.70;;;0.40;;
2548;SDS011;1284;53.520;10.248;2023-07-20T09:22:45;2.15;;;0.50;;
2548;SDS011;1284;53.520;10.248;2023-07-20T09:27:47;0.60;;;0.30;;
2548;SDS011;1284;53.520;10.248;2023-07-20T09:30:13;0.90;;;0.40;;
2548;SDS011;1284;53.520;10.248;2023-07-20T09:35:18;0.50;;;0.38;;
2548;SDS011;1284;53.520;10.248;2023-07-20T09:40:26;1.17;;;0.70;;
2548;SDS011;1284;53.520;10.248;2023-07-20T09:42:52;1.48;;;0.50;;
2548;SDS011;1284;53.520;10.248;2023-07-20T09:45:35;0.45;;;0.20;;
2548;SDS011;1284;53.520;10.248;2023-07-20T09:48:05;2.80;;;0.45;;
2548;SDS011;1284;53.520;10.248;2023-07-20T09:50:39;0.80;;;0.43;;
2548;SDS011;1284;53.520;10.248;2023-07-20T09:53:07;1.02;;;0.30;;
2548;SDS011;1284;53.520;10.248;2023-07-20T09:55:38;0.50;;;0.35;;
2548;SDS011;1284;53.520;10.248;2023-07-20T09:58:05;1.23;;;0.50;;
2548;SDS011;1284;53.520;10.248;2023-07-20T10:00:32;0.35;;;0.15;;
2548;SDS011;1284;53.520;10.248;2023-07-20T10:02:59;1.17;;;0.20;;
2548;SDS011;1284;53.520;10.248;2023-07-20T10:06:03;1.23;;;0.30;;
2548;SDS011;1284;53.520;10.248;2023-07-20T10:08:32;0.47;;;0.28;;
2548;SDS011;1284;53.520;10.248;2023-07-20T10:11:03;0.35;;;0.22;;
2548;SDS011;1284;53.520;10.248;2023-07-20T10:13:30;1.95;;;0.30;;
2548;SDS011;1284;53.520;10.248;2023-07-20T10:15:59;0.17;;;0.10;;
2548;SDS011;1284;53.520;10.248;2023-07-20T10:18:34;3.20;;;0.32;;
2548;SDS011;1284;53.520;10.248;2023-07-20T10:21:07;0.10;;;0.05;;
2548;SDS011;1284;53.520;10.248;2023-07-20T10:23:34;0.63;;;0.30;;
2548;SDS011;1284;53.520;10.248;2023-07-20T10:26:01;0.20;;;0.03;;
2548;SDS011;1284;53.520;10.248;2023-07-20T10:28:28;0.57;;;0.13;;
2548;SDS011;1284;53.520;10.248;2023-07-20T10:30:54;0.90;;;0.10;;
2548;SDS011;1284;53.520;10.248;2023-07-20T10:33:19;0.17;;;0.17;;
2548;SDS011;1284;53.520;10.248;2023-07-20T10:35:55;1.52;;;0.10;;
2548;SDS011;1284;53.520;10.248;2023-07-20T10:38:58;1.98;;;0.20;;
2548;SDS011;1284;53.520;10.248;2023-07-20T10:41:21;1.67;;;0.30;;
2548;SDS011;1284;53.520;10.248;2023-07-20T10:43:49;0.28;;;0.10;;
2548;SDS011;1284;53.520;10.248;2023-07-20T10:46:33;0.60;;;0.60;;
2548;SDS011;1284;53.520;10.248;2023-07-20T10:49:00;0.10;;;0.10;;
2548;SDS011;1284;53.520;10.248;2023-07-20T10:51:29;0.10;;;0.10;;
2548;SDS011;1284;53.520;10.248;2023-07-20T10:56:40;0.20;;;0.10;;
2548;SDS011;1284;53.520;10.248;2023-07-20T10:59:17;0.10;;;0.10;;
2548;SDS011;1284;53.520;10.248;2023-07-20T11:02:02;1.15;;;0.28;;
2548;SDS011;1284;53.520;10.248;2023-07-20T11:04:52;0.00;;;0.00;;
2548;SDS011;1284;53.520;10.248;2023-07-20T11:07:17;0.08;;;0.05;;
2548;SDS011;1284;53.520;10.248;2023-07-20T11:10:12;0.00;;;0.00;;
2548;SDS011;1284;53.520;10.248;2023-07-20T11:12:38;0.00;;;0.00;;
2548;SDS011;1284;53.520;10.248;2023-07-20T11:15:04;3.78;;;0.28;;
2548;SDS011;1284;53.520;10.248;2023-07-20T11:17:30;0.20;;;0.10;;
2548;SDS011;1284;53.520;10.248;2023-07-20T11:20:16;3.40;;;0.30;;
2548;SDS011;1284;53.520;10.248;2023-07-20T11:22:42;0.93;;;0.20;;
2548;SDS011;1284;53.520;10.248;2023-07-20T11:25:09;0.57;;;0.20;;
2548;SDS011;1284;53.520;10.248;2023-07-20T11:27:43;0.30;;;0.30;;
2548;SDS011;1284;53.520;10.248;2023-07-20T11:30:16;0.10;;;0.10;;
2548;SDS011;1284;53.520;10.248;2023-07-20T11:32:47;1.05;;;0.28;;
2548;SDS011;1284;53.520;10.248;2023-07-20T11:35:13;0.63;;;0.20;;
2548;SDS011;1284;53.520;10.248;2023-07-20T11:37:39;0.20;;;0.10;;
2548;SDS011;1284;53.520;10.248;2023-07-20T11:40:06;0.75;;;0.20;;
2548;SDS011;1284;53.520;10.248;2023-07-20T11:42:32;0.30;;;0.10;;
2548;SDS011;1284;53.520;10.248;2023-07-20T11:44:58;0.32;;;0.20;;
2548;SDS011;1284;53.520;10.248;2023-07-20T11:47:28;1.80;;;0.25;;
2548;SDS011;1284;53.520;10.248;2023-07-20T11:49:54;0.20;;;0.20;;
2548;SDS011;1284;53.520;10.248;2023-07-20T11:52:19;7.60;;;0.80;;
2548;SDS011;1284;53.520;10.248;2023-07-20T11:54:48;0.20;;;0.17;;
2548;SDS011;1284;53.520;10.248;2023-07-20T11:57:15;0.20;;;0.10;;
2548;SDS011;1284;53.520;10.248;2023-07-20T11:59:56;0.20;;;0.10;;
2548;SDS011;1284;53.520;10.248;2023-07-20T12:02:24;0.10;;;0.10;;
2548;SDS011;1284;53.520;10.248;2023-07-20T12:04:53;0.00;;;0.00;;
2548;SDS011;1284;53.520;10.248;2023-07-20T12:07:19;0.47;;;0.10;;
2548;SDS011;1284;53.520;10.248;2023-07-20T12:10:02;0.00;;;0.00;;
2548;SDS011;1284;53.520;10.248;2023-07-20T12:12:43;0.25;;;0.13;;
2548;SDS011;1284;53.520;10.248;2023-07-20T12:15:27;0.25;;;0.10;;
2548;SDS011;1284;53.520;10.248;2023-07-20T12:17:55;0.10;;;0.10;;
2548;SDS011;1284;53.520;10.248;2023-07-20T12:20:29;0.65;;;0.20;;
2548;SDS011;1284;53.520;10.248;2023-07-20T12:23:03;0.10;;;0.10;;
2548;SDS011;1284;53.520;10.248;2023-07-20T12:28:13;0.28;;;0.20;;
2548;SDS011;1284;53.520;10.248;2023-07-20T12:30:39;0.22;;;0.20;;
2548;SDS011;1284;53.520;10.248;2023-07-20T12:33:06;4.57;;;0.10;;
2548;SDS011;1284;53.520;10.248;2023-07-20T12:35:32;0.98;;;0.30;;
2548;SDS011;1284;53.520;10.248;2023-07-20T12:38:01;0.75;;;0.20;;
2548;SDS011;1284;53.520;10.248;2023-07-20T12:40:26;0.80;;;0.38;;
2548;SDS011;1284;53.520;10.248;2023-07-20T12:42:52;0.30;;;0.10;;
2548;SDS011;1284;53.520;10.248;2023-07-20T12:45:17;0.00;;;0.00;;
2548;SDS011;1284;53.520;10.248;2023-07-20T12:47:43;0.03;;;0.00;;
2548;SDS011;1284;53.520;10.248;2023-07-20T12:50:11;0.30;;;0.10;;
2548;SDS011;1284;53.520;10.248;2023-07-20T12:52:38;3.17;;;0.50;;
2548;SDS011;1284;53.520;10.248;2023-07-20T12:55:05;2.08;;;0.10;;
2548;SDS011;1284;53.520;10.248;2023-07-20T12:57:33;0.20;;;0.20;;
2548;SDS011;1284;53.520;10.248;2023-07-20T12:59:59;1.52;;;0.38;;
2548;SDS011;1284;53.520;10.248;2023-07-20T13:02:25;1.67;;;0.10;;
2548;SDS011;1284;53.520;10.248;2023-07-20T13:04:50;0.10;;;0.10;;
2548;SDS011;1284;53.520;10.248;2023-07-20T13:07:16;0.20;;;0.13;;
2548;SDS011;1284;53.520;10.248;2023-07-20T13:09:41;0.55;;;0.15;;
2548;SDS011;1284;53.520;10.248;2023-07-20T13:12:07;0.17;;;0.10;;
2548;SDS011;1284;53.520;10.248;2023-07-20T13:14:33;0.40;;;0.30;;
2548;SDS011;1284;53.520;10.248;2023-07-20T13:16:58;0.30;;;0.30;;
2548;SDS011;1284;53.520;10.248;2023-07-20T13:19:24;0.63;;;0.25;;
2548;SDS011;1284;53.520;10.248;2023-07-20T13:21:49;0.63;;;0.30;;
2548;SDS011;1284;53.520;10.248;2023-07-20T13:24:15;0.70;;;0.20;;
2548;SDS011;1284;53.520;10.248;2023-07-20T13:26:41;0.10;;;0.10;;
2548;SDS011;1284;53.520;10.248;2023-07-20T13:29:06;0.20;;;0.10;;
2548;SDS011;1284;53.520;10.248;2023-07-20T13:31:32;0.22;;;0.10;;
2548;SDS011;1284;53.520;10.248;2023-07-20T13:33:57;0.73;;;0.10;;
2548;SDS011;1284;53.520;10.248;2023-07-20T13:36:23;0.30;;;0.20;;
2548;SDS011;1284;53.520;10.248;2023-07-20T13:38:49;0.55;;;0.20;;
2548;SDS011;1284;53.520;10.248;2023-07-20T13:41:14;0.65;;;0.25;;
2548;SDS011;1284;53.520;10.248;2023-07-20T13:43:41;0.40;;;0.20;;
2548;SDS011;1284;53.520;10.248;2023-07-20T13:46:07;0.13;;;0.10;;
2548;SDS011;1284;53.520;10.248;2023-07-20T13:48:32;0.63;;;0.20;;
2548;SDS011;1284;53.520;10.248;2023-07-20T13:50:58;1.17;;;0.13;;
2548;SDS011;1284;53.520;10.248;2023-07-20T13:53:23;0.08;;;0.05;;
2548;SDS011;1284;53.520;10.248;2023-07-20T13:55:48;1.08;;;0.15;;
2548;SDS011;1284;53.520;10.248;2023-07-20T13:58:14;0.57;;;0.10;;
2548;SDS011;1284;53.520;10.248;2023-07-20T14:00:40;0.00;;;0.00;;
2548;SDS011;1284;53.520;10.248;2023-07-20T14:03:05;1.27;;;0.35;;
2548;SDS011;1284;53.520;10.248;2023-07-20T14:05:32;0.38;;;0.10;;
2548;SDS011;1284;53.520;10.248;2023-07-20T14:07:59;0.35;;;0.08;;
2548;SDS011;1284;53.520;10.248;2023-07-20T14:10:24;0.57;;;0.15;;
2548;SDS011;1284;53.520;10.248;2023-07-20T14:12:49;0.60;;;0.30;;
2548;SDS011;1284;53.520;10.248;2023-07-20T14:15:15;0.17;;;0.03;;
2548;SDS011;1284;53.520;10.248;2023-07-20T14:17:40;0.93;;;0.20;;
2548;SDS011;1284;53.520;10.248;2023-07-20T14:20:06;0.88;;;0.28;;
2548;SDS011;1284;53.520;10.248;2023-07-20T14:22:33;0.65;;;0.28;;
2548;SDS011;1284;53.520;10.248;2023-07-20T14:24:58;0.20;;;0.10;;
2548;SDS011;1284;53.520;10.248;2023-07-20T14:27:24;0.28;;;0.10;;
2548;SDS011;1284;53.520;10.248;2023-07-20T14:29:49;0.28;;;0.10;;
2548;SDS011;1284;53.520;10.248;2023-07-20T14:32:15;6.80;;;0.10;;
2548;SDS011;1284;53.520;10.248;2023-07-20T14:34:40;0.20;;;0.00;;
2548;SDS011;1284;53.520;10.248;2023-07-20T14:37:06;0.22;;;0.15;;
2548;SDS011;1284;53.520;10.248;2023-07-20T14:39:32;0.23;;;0.10;;
2548;SDS011;1284;53.520;10.248;2023-07-20T14:41:58;0.30;;;0.10;;
2548;SDS011;1284;53.520;10.248;2023-07-20T14:44:23;0.20;;;0.10;;
2548;SDS011;1284;53.520;10.248;2023-07-20T14:46:49;0.30;;;0.20;;
2548;SDS011;1284;53.520;10.248;2023-07-20T14:49:18;0.10;;;0.10;;
2548;SDS011;1284;53.520;10.248;2023-07-20T14:51:44;1.88;;;0.08;;
2548;SDS011;1284;53.520;10.248;2023-07-20T14:54:12;0.10;;;0.10;;
2548;SDS011;1284;53.520;10.248;2023-07-20T14:56:38;0.38;;;0.17;;
2548;SDS011;1284;53.520;10.248;2023-07-20T14:59:04;0.13;;;0.10;;
2548;SDS011;1284;53.520;10.248;2023-07-20T15:01:31;0.22;;;0.17;;
2548;SDS011;1284;53.520;10.248;2023-07-20T15:03:56;2.13;;;0.20;;
2548;SDS011;1284;53.520;10.248;2023-07-20T15:06:22;0.10;;;0.10;;
2548;SDS011;1284;53.520;10.248;2023-07-20T15:08:48;0.15;;;0.10;;
2548;SDS011;1284;53.520;10.248;2023-07-20T15:11:13;0.63;;;0.10;;
2548;SDS011;1284;53.520;10.248;2023-07-20T15:13:39;0.30;;;0.10;;
2548;SDS011;1284;53.520;10.248;2023-07-20T15:16:07;0.38;;;0.10;;
2548;SDS011;1284;53.520;10.248;2023-07-20T15:18:32;0.10;;;0.10;;
2548;SDS011;1284;53.520;10.248;2023-07-20T15:20:58;0.57;;;0.10;;
2548;SDS011;1284;53.520;10.248;2023-07-20T15:23:23;0.10;;;0.10;;
2548;SDS011;1284;53.520;10.248;2023-07-20T15:25:49;0.40;;;0.20;;